Time;durP1;ratioP1;P1;durP2;ratioP2;P2;SDS_P1;SDS_P2;PMS_P1;PMS_P2;Temp;Humidity;BMP_temperature;BMP_pressure;BME280_temperature;BME280_humidity;BME280_pressure;Samples;Min_cycle;Max_cycle;Signal;HPM_P1;HPM_P2
2023/02/16 00:01:50;;;;;;;101.07;42.53;;;5.50;99.90;;;;;;5060996;28;20029;-74
2023/02/16 00:04:33;;;;;;;95.05;40.90;;;5.30;99.90;;;;;;5060282;28;20086;-73
2023/02/16 00:06:59;;;;;;;101.55;42.03;;;5.40;99.90;;;;;;5060783;28;20067;-74
2023/02/16 00:09:24;;;;;;;100.95;42.65;;;5.30;99.90;;;;;;5060747;28;20025;-73
2023/02/16 00:14:37;;;;;;;104.95;41.33;;;5.30;99.90;;;;;;5062542;28;20117;-73
2023/02/16 00:17:04;;;;;;;97.25;41.15;;;5.30;99.90;;;;;;5062397;28;20029;-74
2023/02/16 00:19:43;;;;;;;102.40;42.55;;;5.20;99.90;;;;;;5061567;28;20025;-72
2023/02/16 00:22:10;;;;;;;99.10;43.13;;;5.30;99.90;;;;;;5061893;28;20056;-73
2023/02/16 00:24:36;;;;;;;103.28;42.47;;;5.20;99.90;;;;;;5060406;28;20052;-70
2023/02/16 00:27:02;;;;;;;96.55;41.92;;;5.20;99.90;;;;;;5060886;28;20033;-73
2023/02/16 00:29:29;;;;;;;107.40;41.53;;;5.20;99.90;;;;;;5061368;28;20032;-73
2023/02/16 00:31:56;;;;;;;98.53;41.45;;;5.10;99.90;;;;;;5060797;28;20033;-72
2023/02/16 00:34:38;;;;;;;108.72;44.35;;;5.10;99.90;;;;;;5060411;28;20466;-74
2023/02/16 00:37:07;;;;;;;97.20;42.10;;;5.10;99.90;;;;;;5061478;28;20025;-73
2023/02/16 00:39:33;;;;;;;105.95;42.20;;;5.10;99.90;;;;;;5060017;28;20147;-73
2023/02/16 00:42:12;;;;;;;97.72;41.45;;;5.00;99.90;;;;;;5061580;28;20021;-74
2023/02/16 00:44:42;;;;;;;97.88;42.25;;;5.00;99.90;;;;;;5060346;28;20820;-73
2023/02/16 00:47:32;;;;;;;107.82;44.10;;;5.00;99.90;;;;;;5059972;28;20037;-73
2023/02/16 00:49:58;;;;;;;107.15;42.28;;;5.00;99.90;;;;;;5060023;28;20041;-73
2023/02/16 00:52:27;;;;;;;101.93;42.47;;;5.10;99.90;;;;;;5059604;28;20035;-74
2023/02/16 00:54:52;;;;;;;102.40;42.75;;;5.00;99.90;;;;;;5061094;28;20033;-74
2023/02/16 00:57:19;;;;;;;98.10;43.22;;;5.00;99.90;;;;;;5060298;28;20086;-73
2023/02/16 00:59:47;;;;;;;108.50;43.75;;;5.00;99.90;;;;;;5060281;28;20025;-74
2023/02/16 01:02:13;;;;;;;108.22;43.90;;;5.00;99.90;;;;;;5061350;28;20033;-73
2023/02/16 01:04:39;;;;;;;107.35;43.17;;;5.00;99.90;;;;;;5060535;28;20051;-75
2023/02/16 01:12:40;;;;;;;104.00;42.70;;;5.00;99.90;;;;;;5060144;28;20051;-74
2023/02/16 01:15:11;;;;;;;105.00;43.88;;;4.90;99.90;;;;;;5059596;28;20116;-73
2023/02/16 01:17:37;;;;;;;99.68;44.17;;;4.90;99.90;;;;;;5061096;28;20013;-73
2023/02/16 01:20:12;;;;;;;106.45;41.83;;;5.00;99.90;;;;;;5060765;28;20075;-73
2023/02/16 01:22:38;;;;;;;105.88;41.38;;;5.00;99.90;;;;;;5060645;28;20021;-72
2023/02/16 01:25:04;;;;;;;98.60;42.33;;;5.00;99.90;;;;;;5060580;28;20079;-73
2023/02/16 01:27:30;;;;;;;99.10;43.22;;;5.00;99.90;;;;;;5060407;28;20025;-73
2023/02/16 01:29:55;;;;;;;109.75;44.70;;;5.00;99.90;;;;;;5059957;28;20441;-73
2023/02/16 01:32:21;;;;;;;100.28;42.53;;;5.10;99.90;;;;;;5059402;28;20039;-73
2023/02/16 01:34:46;;;;;;;110.38;43.42;;;5.00;99.90;;;;;;5060893;28;20021;-73
2023/02/16 01:37:15;;;;;;;100.05;41.67;;;4.90;99.90;;;;;;5058172;28;20146;-73
2023/02/16 01:39:41;;;;;;;104.15;42.90;;;5.00;99.90;;;;;;5058063;28;20021;-74
2023/02/16 01:42:43;;;;;;;103.30;43.10;;;4.90;99.90;;;;;;5059065;28;20048;-72
2023/02/16 01:45:14;;;;;;;104.50;42.92;;;4.90;99.90;;;;;;5053952;28;20037;-75
2023/02/16 01:47:48;;;;;;;117.07;45.03;;;4.80;99.90;;;;;;5059952;28;20436;-74
2023/02/16 01:50:33;;;;;;;108.78;43.92;;;4.80;99.90;;;;;;5060162;28;20072;-75
2023/02/16 01:53:00;;;;;;;;;;;4.80;99.90;;;;;;5059600;28;20048;-75
2023/02/16 01:55:28;;;;;;;112.45;43.50;;;4.80;99.90;;;;;;5059719;28;20018;-72
2023/02/16 01:58:12;;;;;;;104.93;42.83;;;4.80;99.90;;;;;;5060525;28;20035;-73
2023/02/16 02:01:04;;;;;;;111.03;42.77;;;4.80;99.90;;;;;;5058482;28;20028;-74
2023/02/16 02:06:22;;;;;;;107.75;44.70;;;4.80;99.90;;;;;;5060057;28;20047;-73
2023/02/16 02:09:27;;;;;;;112.63;45.80;;;4.70;99.90;;;;;;5059060;28;20052;-74
2023/02/16 02:12:05;;;;;;;100.97;42.75;;;4.70;99.90;;;;;;5057994;28;20047;-73
2023/02/16 02:14:37;;;;;;;105.38;43.03;;;4.70;99.90;;;;;;5060506;28;20025;-72
2023/02/16 02:17:12;;;;;;;105.50;43.38;;;4.70;99.90;;;;;;5058910;28;20033;-73
2023/02/16 02:19:47;;;;;;;103.97;42.30;;;4.60;99.90;;;;;;5059597;28;20037;-74
2023/02/16 02:26:06;;;;;;;107.95;42.80;;;4.60;99.90;;;;;;5059265;28;20055;-75
2023/02/16 02:29:13;;;;;;;121.85;43.78;;;4.60;99.90;;;;;;5059238;28;20377;-73
2023/02/16 02:31:53;;;;;;;109.35;43.55;;;4.50;99.90;;;;;;5024799;28;20041;-74
2023/02/16 02:34:34;;;;;;;105.35;42.95;;;4.50;99.90;;;;;;5059838;28;20033;-74
2023/02/16 02:37:06;;;;;;;110.68;44.65;;;4.50;99.90;;;;;;5058345;28;20055;-74
2023/02/16 02:39:35;;;;;;;107.93;42.45;;;4.50;99.90;;;;;;5058295;28;20759;-74
2023/02/16 02:42:04;;;;;;;104.88;42.50;;;4.40;99.90;;;;;;5059399;28;20032;-73
2023/02/16 02:44:46;;;;;;;114.25;43.05;;;4.40;99.90;;;;;;5057879;28;20115;-73
2023/02/16 02:47:12;;;;;;;105.72;42.80;;;4.40;99.90;;;;;;5059646;28;20025;-73
2023/02/16 02:49:38;;;;;;;110.70;42.67;;;4.40;99.90;;;;;;5059574;28;20943;-73
2023/02/16 02:52:03;;;;;;;95.32;40.85;;;4.40;99.90;;;;;;5058306;28;20029;-73
2023/02/16 03:03:22;;;;;;;114.57;44.08;;;4.20;99.90;;;;;;5059497;28;20044;-74
2023/02/16 03:05:53;;;;;;;101.65;43.35;;;4.20;99.90;;;;;;5058283;28;20043;-72
2023/02/16 03:08:23;;;;;;;108.15;42.63;;;4.20;99.90;;;;;;5058309;28;20021;-74
2023/02/16 03:14:13;;;;;;;108.40;41.80;;;4.20;99.90;;;;;;5050226;28;20059;-75
2023/02/16 03:16:48;;;;;;;124.68;43.53;;;4.20;99.90;;;;;;5058999;28;20088;-74
2023/02/16 03:30:22;;;;;;;108.72;44.63;;;4.10;99.90;;;;;;5059587;28;20044;-73
2023/02/16 03:32:49;;;;;;;124.50;44.85;;;4.10;99.90;;;;;;5059128;28;20096;-74
2023/02/16 03:35:15;;;;;;;114.95;44.75;;;4.10;99.90;;;;;;5057889;28;20025;-74
2023/02/16 03:37:41;;;;;;;111.85;44.35;;;4.10;99.90;;;;;;5057808;28;20082;-73
2023/02/16 03:40:28;;;;;;;109.75;44.80;;;4.10;99.90;;;;;;5061560;28;20060;-74
2023/02/16 03:43:00;;;;;;;112.68;41.85;;;4.10;99.90;;;;;;5062877;28;20446;-73
2023/02/16 03:45:27;;;;;;;110.32;44.20;;;4.10;99.90;;;;;;5062178;28;20052;-74
2023/02/16 03:47:53;;;;;;;109.13;43.75;;;4.00;99.90;;;;;;5061486;28;20059;-74
2023/02/16 03:50:19;;;;;;;113.65;43.38;;;4.00;99.90;;;;;;5061503;28;20075;-74
2023/02/16 03:52:45;;;;;;;118.07;45.03;;;4.00;99.90;;;;;;5060783;28;20048;-73
2023/02/16 03:55:10;;;;;;;114.80;43.42;;;4.00;99.90;;;;;;5062462;28;20029;-73
2023/02/16 03:57:36;;;;;;;111.25;43.95;;;4.00;99.90;;;;;;5062167;28;20115;-73
2023/02/16 04:00:02;;;;;;;113.45;44.13;;;4.00;99.90;;;;;;5062484;28;20077;-73
2023/02/16 04:02:28;;;;;;;113.88;46.47;;;4.00;99.90;;;;;;5061154;28;20017;-73
2023/02/16 04:04:54;;;;;;;121.88;46.55;;;4.00;99.90;;;;;;5062275;28;20052;-73
2023/02/16 04:07:20;;;;;;;135.23;52.03;;;4.10;99.90;;;;;;5060490;28;20033;-73
2023/02/16 04:09:45;;;;;;;138.25;54.45;;;4.00;99.90;;;;;;5062322;28;20035;-74
2023/02/16 04:14:56;;;;;;;128.02;50.53;;;4.10;99.90;;;;;;5061892;28;20063;-74
2023/02/16 04:17:23;;;;;;;120.00;49.47;;;4.10;99.90;;;;;;5060848;28;20025;-72
2023/02/16 04:19:48;;;;;;;122.85;46.13;;;4.10;99.90;;;;;;5062180;28;20125;-73
2023/02/16 04:22:14;;;;;;;106.45;45.83;;;4.10;99.90;;;;;;5061102;28;20043;-74
2023/02/16 04:24:39;;;;;;;111.63;45.05;;;4.10;99.90;;;;;;5060378;28;20076;-74
2023/02/16 04:27:05;;;;;;;112.05;45.17;;;4.10;99.90;;;;;;5060583;28;20017;-73
2023/02/16 04:29:31;;;;;;;119.95;46.05;;;4.20;99.90;;;;;;5060736;28;20021;-73
2023/02/16 04:31:56;;;;;;;118.97;45.17;;;4.20;99.90;;;;;;5062133;28;20112;-74
2023/02/16 04:34:22;;;;;;;117.45;46.10;;;4.10;99.90;;;;;;5058653;28;20049;-74
2023/02/16 04:36:48;;;;;;;116.90;46.97;;;4.20;99.90;;;;;;5061485;28;20025;-75
2023/02/16 04:39:13;;;;;;;105.50;45.40;;;4.20;99.90;;;;;;5061234;28;20033;-73
2023/02/16 04:41:39;;;;;;;108.45;45.42;;;4.20;99.90;;;;;;5062774;28;20036;-73
2023/02/16 04:44:05;;;;;;;107.18;43.92;;;4.10;99.90;;;;;;5062618;28;20028;-73
2023/02/16 04:46:30;;;;;;;122.53;46.50;;;4.10;99.90;;;;;;5062570;28;20045;-74
2023/02/16 04:48:57;;;;;;;106.22;45.50;;;4.10;99.90;;;;;;5061155;28;20032;-74
2023/02/16 04:51:23;;;;;;;118.60;45.38;;;4.20;99.90;;;;;;5060783;28;20100;-75
2023/02/16 04:53:48;;;;;;;105.72;44.70;;;4.10;99.90;;;;;;5062938;28;20049;-75
2023/02/16 04:56:14;;;;;;;106.35;44.13;;;4.10;99.90;;;;;;5062533;28;20429;-72
2023/02/16 04:58:40;;;;;;;111.65;45.05;;;4.10;99.90;;;;;;5062680;28;20167;-75
2023/02/16 05:01:05;;;;;;;107.35;44.55;;;4.10;99.90;;;;;;5062532;28;20611;-73
2023/02/16 05:03:31;;;;;;;119.90;44.22;;;4.10;99.90;;;;;;5060858;28;20029;-74
2023/02/16 05:05:56;;;;;;;109.10;43.90;;;4.10;99.90;;;;;;5060961;28;20044;-75
2023/02/16 05:08:22;;;;;;;107.63;43.40;;;4.10;99.90;;;;;;5062264;28;20033;-74
2023/02/16 05:14:40;;;;;;;115.88;46.08;;;4.10;99.90;;;;;;5062398;28;20390;-75
2023/02/16 05:16:20;;;;;;;110.20;44.40;;;4.10;99.90;;;;;;5062472;28;20448;-72
2023/02/16 05:18:46;;;;;;;96.50;42.55;;;4.00;99.90;;;;;;5060613;28;20029;-73
2023/02/16 05:21:30;;;;;;;107.68;43.97;;;4.00;99.90;;;;;;5060553;28;20032;-75
2023/02/16 05:23:57;;;;;;;97.78;42.50;;;4.00;99.90;;;;;;5061736;28;20041;-73
2023/02/16 05:26:23;;;;;;;114.97;44.15;;;4.00;99.90;;;;;;5059950;28;20037;-73
2023/02/16 05:28:48;;;;;;;109.65;44.03;;;3.90;99.90;;;;;;5060388;28;20033;-72
2023/02/16 05:31:14;;;;;;;114.10;42.13;;;3.90;99.90;;;;;;5060655;28;20032;-73
2023/02/16 05:33:39;;;;;;;105.80;42.55;;;3.90;99.90;;;;;;5061542;28;20033;-72
2023/02/16 05:36:05;;;;;;;104.55;40.53;;;3.90;99.90;;;;;;5061406;28;20025;-75
2023/02/16 05:38:31;;;;;;;98.45;42.22;;;3.90;99.90;;;;;;5061786;28;20029;-74
2023/02/16 05:40:58;;;;;;;103.78;43.08;;;3.80;99.90;;;;;;5061292;28;20043;-72
2023/02/16 05:43:24;;;;;;;114.28;42.03;;;3.80;99.90;;;;;;5059909;28;20087;-74
2023/02/16 05:45:50;;;;;;;110.55;44.20;;;3.80;99.90;;;;;;5061542;28;21412;-74
2023/02/16 05:48:15;;;;;;;114.68;44.58;;;3.90;99.90;;;;;;5061878;28;20527;-73
2023/02/16 05:50:41;;;;;;;110.15;44.75;;;3.80;99.90;;;;;;5060672;28;20016;-74
2023/02/16 05:53:07;;;;;;;102.05;43.60;;;3.90;99.90;;;;;;5060131;28;20055;-72
2023/02/16 05:55:32;;;;;;;169.38;62.50;;;3.90;99.90;;;;;;5060069;28;20017;-73
2023/02/16 05:57:58;;;;;;;130.48;49.55;;;3.90;99.90;;;;;;5059708;28;20029;-72
2023/02/16 06:00:24;;;;;;;113.15;45.38;;;4.10;99.90;;;;;;5061480;28;20024;-72
2023/02/16 06:02:49;;;;;;;104.32;45.40;;;4.00;99.90;;;;;;5060355;28;20021;-72
2023/02/16 06:05:15;;;;;;;115.70;46.70;;;4.10;99.90;;;;;;5060980;28;20109;-72
2023/02/16 06:07:41;;;;;;;111.68;43.60;;;4.10;99.90;;;;;;5061114;28;20060;-72
2023/02/16 06:10:07;;;;;;;105.07;43.33;;;4.10;99.90;;;;;;5059490;28;20041;-74
2023/02/16 06:12:33;;;;;;;104.82;44.83;;;4.20;99.90;;;;;;5060496;28;20092;-73
2023/02/16 06:14:59;;;;;;;110.57;42.45;;;4.20;99.90;;;;;;5061012;28;20017;-74
2023/02/16 06:17:25;;;;;;;108.38;42.42;;;4.20;99.90;;;;;;5059621;28;20466;-73
2023/02/16 06:19:51;;;;;;;112.38;44.55;;;4.20;99.90;;;;;;5059511;28;20017;-75
2023/02/16 06:22:16;;;;;;;107.30;43.65;;;4.20;99.90;;;;;;5060708;28;20060;-73
2023/02/16 06:24:42;;;;;;;103.60;42.15;;;4.10;99.90;;;;;;5059144;28;20138;-74
2023/02/16 06:27:07;;;;;;;110.68;42.70;;;4.10;99.90;;;;;;5059344;28;20394;-71
2023/02/16 06:29:33;;;;;;;101.93;43.60;;;4.10;99.90;;;;;;5059588;28;20188;-71
2023/02/16 06:31:59;;;;;;;108.95;43.63;;;4.10;99.90;;;;;;5053665;28;20035;-72
2023/02/16 06:34:25;;;;;;;109.95;44.72;;;4.10;99.90;;;;;;5060611;28;20389;-72
2023/02/16 06:36:50;;;;;;;105.53;43.28;;;4.10;99.90;;;;;;5059216;28;20108;-72
2023/02/16 06:39:16;;;;;;;105.07;43.50;;;4.10;99.90;;;;;;5059420;28;20068;-72
2023/02/16 06:41:42;;;;;;;101.38;42.85;;;4.20;99.90;;;;;;5057770;28;20021;-72
2023/02/16 06:44:13;;;;;;;102.50;43.40;;;4.20;99.90;;;;;;5058598;28;20025;-71
2023/02/16 06:46:40;;;;;;;105.57;46.50;;;4.20;99.90;;;;;;5060358;28;20045;-71
2023/02/16 06:49:06;;;;;;;110.35;45.17;;;4.20;99.90;;;;;;5058044;28;20020;-70
2023/02/16 06:51:31;;;;;;;106.68;44.20;;;4.20;99.90;;;;;;5059017;28;20059;-72
2023/02/16 06:53:57;;;;;;;102.55;41.50;;;4.20;99.90;;;;;;5060342;28;20025;-73
2023/02/16 06:56:23;;;;;;;105.80;45.10;;;4.30;99.90;;;;;;5059298;28;20021;-71
2023/02/16 06:58:49;;;;;;;112.78;45.38;;;4.30;99.90;;;;;;5060749;28;20019;-72
2023/02/16 07:01:16;;;;;;;103.53;44.20;;;4.40;99.90;;;;;;5059143;28;20560;-72
2023/02/16 07:03:42;;;;;;;115.60;45.80;;;4.40;99.90;;;;;;5057111;28;20029;-73
2023/02/16 07:06:08;;;;;;;113.78;48.67;;;4.50;99.90;;;;;;5055676;28;20051;-72
2023/02/16 07:08:33;;;;;;;123.57;45.05;;;4.50;99.90;;;;;;5057354;28;20029;-71
2023/02/16 07:10:59;;;;;;;118.22;46.70;;;4.50;99.90;;;;;;5058671;28;20026;-71
2023/02/16 07:13:24;;;;;;;112.43;45.45;;;4.50;99.90;;;;;;5058677;28;20064;-71
2023/02/16 07:15:50;;;;;;;109.55;47.08;;;4.60;99.90;;;;;;5063254;28;20501;-72
2023/02/16 07:18:16;;;;;;;107.25;45.03;;;4.60;99.90;;;;;;5062105;28;20013;-71
2023/02/16 07:20:42;;;;;;;107.05;45.03;;;4.60;99.90;;;;;;5062715;28;20021;-70
2023/02/16 07:23:08;;;;;;;105.22;45.53;;;4.70;99.90;;;;;;5061928;28;20057;-70
2023/02/16 07:25:33;;;;;;;111.72;47.05;;;4.70;99.90;;;;;;5064545;28;20037;-71
2023/02/16 07:27:59;;;;;;;106.25;44.80;;;4.60;99.90;;;;;;5063993;28;20051;-70
2023/02/16 07:30:27;;;;;;;107.75;45.63;;;4.70;99.90;;;;;;5064479;28;20037;-71
2023/02/16 07:32:52;;;;;;;106.55;46.22;;;4.70;99.90;;;;;;5064307;28;20025;-72
2023/02/16 07:35:18;;;;;;;113.07;45.17;;;4.70;99.90;;;;;;5065060;28;20030;-71
2023/02/16 07:37:43;;;;;;;109.07;45.25;;;4.70;99.90;;;;;;5063897;28;20144;-72
2023/02/16 07:40:09;;;;;;;116.85;46.88;;;4.70;99.90;;;;;;5062935;28;20021;-72
2023/02/16 07:42:35;;;;;;;108.72;45.55;;;4.70;99.90;;;;;;5064029;28;20052;-71
2023/02/16 07:45:03;;;;;;;111.75;46.88;;;4.80;99.90;;;;;;5061644;28;20049;-74
2023/02/16 07:47:29;;;;;;;105.93;46.70;;;4.80;99.90;;;;;;5062027;28;20029;-72
2023/02/16 07:49:54;;;;;;;114.32;47.53;;;4.80;99.90;;;;;;5062079;28;20025;-71
2023/02/16 07:52:20;;;;;;;108.40;46.58;;;4.80;99.90;;;;;;5062631;28;20023;-71
2023/02/16 07:54:45;;;;;;;116.07;47.80;;;4.80;99.90;;;;;;5063923;28;20520;-72
2023/02/16 07:57:11;;;;;;;115.18;48.88;;;5.00;99.90;;;;;;5064034;28;20021;-71
2023/02/16 07:59:37;;;;;;;113.13;46.90;;;4.90;99.90;;;;;;5061227;28;20048;-70
2023/02/16 08:02:02;;;;;;;118.03;49.75;;;4.90;99.90;;;;;;5062577;28;20045;-72
2023/02/16 08:04:28;;;;;;;109.20;49.28;;;4.90;99.90;;;;;;5062468;28;20040;-70
2023/02/16 08:06:53;;;;;;;111.10;46.25;;;5.10;99.90;;;;;;5062659;28;20040;-74
2023/02/16 08:09:19;;;;;;;123.57;49.90;;;5.20;99.90;;;;;;5058642;28;20025;-72
2023/02/16 08:11:45;;;;;;;117.85;50.17;;;5.20;99.90;;;;;;5062854;28;20098;-71
2023/02/16 08:14:10;;;;;;;111.10;48.17;;;5.30;99.90;;;;;;5058976;28;20196;-72
2023/02/16 08:16:36;;;;;;;118.65;50.38;;;5.30;99.90;;;;;;5061976;28;20021;-72
2023/02/16 08:19:03;;;;;;;115.90;49.28;;;5.40;99.90;;;;;;5059592;28;20029;-72
2023/02/16 08:21:32;;;;;;;113.25;49.20;;;5.40;99.90;;;;;;5060943;28;20092;-73
2023/02/16 08:24:04;;;;;;;116.03;48.08;;;5.50;99.90;;;;;;5062079;28;20485;-72
2023/02/16 08:26:36;;;;;;;106.68;46.42;;;5.50;99.90;;;;;;5059534;28;20116;-72
2023/02/16 08:29:02;;;;;;;110.03;47.30;;;5.50;99.90;;;;;;5063060;28;20505;-72
2023/02/16 08:31:33;;;;;;;119.03;50.30;;;5.50;99.90;;;;;;5060995;28;20029;-70
2023/02/16 08:34:00;;;;;;;107.35;46.05;;;5.50;99.90;;;;;;5061758;28;20505;-72
2023/02/16 08:36:31;;;;;;;107.18;46.63;;;5.60;99.90;;;;;;5061952;28;20029;-70
2023/02/16 08:38:57;;;;;;;110.20;47.60;;;5.60;99.90;;;;;;5062205;28;20044;-71
2023/02/16 08:41:28;;;;;;;113.95;48.03;;;5.70;99.90;;;;;;5060261;28;20142;-71
2023/02/16 08:43:54;;;;;;;121.90;48.53;;;5.70;99.90;;;;;;5060321;28;20037;-69
2023/02/16 08:46:20;;;;;;;112.03;48.03;;;5.80;99.90;;;;;;5062743;28;20029;-71
2023/02/16 08:48:46;;;;;;;110.53;48.92;;;5.80;99.90;;;;;;5061392;28;20036;-71
2023/02/16 08:51:17;;;;;;;110.53;49.15;;;5.90;99.90;;;;;;5060582;28;20071;-71
2023/02/16 08:53:44;;;;;;;115.72;48.42;;;5.90;99.90;;;;;;5057358;28;20436;-69
2023/02/16 08:56:10;;;;;;;118.85;48.22;;;5.90;99.90;;;;;;5058245;28;20037;-72
2023/02/16 08:58:36;;;;;;;114.63;47.70;;;6.00;99.90;;;;;;5059008;28;20028;-71
2023/02/16 09:01:08;;;;;;;117.05;48.45;;;6.00;99.90;;;;;;5059255;28;20025;-70
2023/02/16 09:03:35;;;;;;;115.13;48.65;;;6.00;99.90;;;;;;5060176;28;20060;-72
2023/02/16 09:06:03;;;;;;;117.63;49.42;;;6.10;99.90;;;;;;5061017;28;20044;-70
2023/02/16 09:08:29;;;;;;;114.15;47.00;;;6.20;99.90;;;;;;5059489;28;20033;-70
2023/02/16 09:10:59;;;;;;;108.30;47.88;;;6.20;99.90;;;;;;5058073;28;20064;-72
2023/02/16 09:13:25;;;;;;;120.38;51.83;;;6.20;99.90;;;;;;5059774;28;20025;-70
2023/02/16 09:15:51;;;;;;;118.18;53.60;;;6.20;99.90;;;;;;5061270;28;20017;-72
2023/02/16 09:18:17;;;;;;;109.25;44.45;;;6.20;99.90;;;;;;5057122;28;20037;-73
2023/02/16 09:20:43;;;;;;;122.00;52.80;;;6.20;99.90;;;;;;5062830;28;20035;-71
2023/02/16 09:23:11;;;;;;;115.80;50.53;;;6.20;99.90;;;;;;5062122;28;20045;-71
2023/02/16 09:25:40;;;;;;;114.85;50.72;;;6.30;99.90;;;;;;5060646;28;20037;-71
2023/02/16 09:28:09;;;;;;;111.13;49.45;;;6.30;99.90;;;;;;5060393;28;20017;-71
2023/02/16 09:30:37;;;;;;;108.72;49.05;;;6.40;99.90;;;;;;5060768;28;20415;-70
2023/02/16 09:33:03;;;;;;;117.25;50.15;;;6.40;99.90;;;;;;5059140;28;20115;-70
2023/02/16 09:35:28;;;;;;;110.38;49.90;;;6.50;99.90;;;;;;5059798;28;20062;-70
2023/02/16 09:37:54;;;;;;;110.70;48.30;;;6.60;99.90;;;;;;5060761;28;20025;-71
2023/02/16 09:40:20;;;;;;;117.97;50.28;;;6.70;99.90;;;;;;5062304;28;20041;-70
2023/02/16 09:43:26;;;;;;;110.72;48.65;;;6.80;99.90;;;;;;5058208;28;20021;-69
2023/02/16 09:45:53;;;;;;;106.93;48.95;;;6.90;99.90;;;;;;5042188;28;20488;-71
2023/02/16 09:48:42;;;;;;;114.72;51.83;;;7.00;99.90;;;;;;5058592;28;20028;-70
2023/02/16 09:51:30;;;;;;;106.13;49.97;;;7.10;99.90;;;;;;5059048;28;20378;-70
2023/02/16 09:54:19;;;;;;;110.80;49.45;;;7.10;99.90;;;;;;5058288;28;20048;-70
2023/02/16 09:57:12;;;;;;;107.15;49.53;;;7.30;99.90;;;;;;5054437;28;20527;-71
2023/02/16 09:59:56;;;;;;;112.03;49.72;;;7.30;99.90;;;;;;5058007;28;20554;-71
2023/02/16 10:02:42;;;;;;;;;;;7.50;99.90;;;;;;5058163;28;20140;-70
2023/02/16 10:05:23;;;;;;;98.00;43.70;;;7.70;99.90;;;;;;5058672;28;19943;-71
2023/02/16 10:08:10;;;;;;;101.43;47.70;;;7.90;99.90;;;;;;5059283;28;20055;-72
2023/02/16 10:10:55;;;;;;;104.05;46.72;;;8.00;99.90;;;;;;5058705;28;20029;-69
2023/02/16 10:13:28;;;;;;;98.97;46.60;;;8.10;99.90;;;;;;5058294;28;20025;-70
2023/02/16 10:15:56;;;;;;;104.75;47.50;;;8.10;99.90;;;;;;5060783;28;20025;-71
2023/02/16 10:18:39;;;;;;;103.45;46.90;;;8.20;99.90;;;;;;5058073;28;20039;-71
2023/02/16 10:21:14;;;;;;;103.85;46.25;;;8.20;99.90;;;;;;5059987;28;20033;-70
2023/02/16 10:23:46;;;;;;;95.78;43.97;;;8.20;99.90;;;;;;5058554;28;20102;-71
2023/02/16 10:26:12;;;;;;;107.53;48.90;;;8.10;99.90;;;;;;5055882;28;20105;-71
2023/02/16 10:28:59;;;;;;;101.80;47.53;;;8.10;99.90;;;;;;5059431;28;20029;-70
2023/02/16 10:31:42;;;;;;;101.95;47.85;;;8.10;99.90;;;;;;5059478;28;20040;-72
2023/02/16 10:34:15;;;;;;;103.10;48.08;;;8.10;99.90;;;;;;5059964;28;20600;-72
2023/02/16 10:36:56;;;;;;;101.55;46.92;;;8.10;99.90;;;;;;5060123;28;20036;-70
2023/02/16 10:39:33;;;;;;;102.15;47.97;;;8.10;99.90;;;;;;5058643;28;20036;-71
2023/02/16 10:42:15;;;;;;;103.25;47.72;;;8.10;99.90;;;;;;5058749;28;20048;-72
2023/02/16 10:45:14;;;;;;;112.57;48.47;;;8.20;99.90;;;;;;5060325;28;20067;-70
2023/02/16 10:47:42;;;;;;;103.28;48.05;;;8.20;99.90;;;;;;5058826;28;20025;-70
2023/02/16 10:50:20;;;;;;;107.47;48.50;;;8.20;99.90;;;;;;5059578;28;20474;-72
2023/02/16 10:52:46;;;;;;;106.40;48.17;;;8.30;99.90;;;;;;5060752;28;20024;-71
2023/02/16 10:55:12;;;;;;;107.38;49.08;;;8.30;99.90;;;;;;5061338;28;20029;-71
2023/02/16 10:57:38;;;;;;;107.32;47.83;;;8.30;99.90;;;;;;5058398;28;20033;-71
2023/02/16 11:00:12;;;;;;;106.90;48.63;;;8.30;99.90;;;;;;5060125;28;20120;-70
2023/02/16 11:02:41;;;;;;;109.47;49.90;;;8.30;99.90;;;;;;5059190;28;20036;-72
2023/02/16 11:05:29;;;;;;;102.03;47.30;;;8.30;99.90;;;;;;5060249;28;20127;-72
2023/02/16 11:08:00;;;;;;;102.03;47.83;;;8.30;99.90;;;;;;5061081;28;20036;-70
2023/02/16 11:10:36;;;;;;;107.18;49.42;;;8.30;99.90;;;;;;5059457;28;20024;-69
2023/02/16 11:13:03;;;;;;;100.82;45.65;;;8.30;99.90;;;;;;5059136;28;20064;-70
2023/02/16 11:15:30;;;;;;;114.75;47.92;;;8.30;99.90;;;;;;5058252;28;20024;-71
2023/02/16 11:18:03;;;;;;;114.35;49.22;;;8.30;99.90;;;;;;5060234;28;20071;-70
2023/02/16 11:20:49;;;;;;;111.43;48.97;;;8.40;99.90;;;;;;5059492;28;20033;-70
2023/02/16 11:23:30;;;;;;;113.53;49.63;;;8.40;99.90;;;;;;5060370;28;20048;-70
2023/02/16 11:26:09;;;;;;;107.05;48.95;;;8.40;99.90;;;;;;5059339;28;20753;-71
2023/02/16 11:28:36;;;;;;;107.22;47.72;;;8.50;99.90;;;;;;5059195;28;20026;-72
2023/02/16 11:31:19;;;;;;;113.72;49.63;;;8.50;99.90;;;;;;5059923;28;20025;-73
2023/02/16 11:33:58;;;;;;;118.60;50.95;;;8.50;99.90;;;;;;5059895;28;20397;-71
2023/02/16 11:36:33;;;;;;;110.20;50.08;;;8.50;99.90;;;;;;5060622;28;20052;-73
2023/02/16 11:39:07;;;;;;;119.32;49.85;;;8.40;99.90;;;;;;5059194;28;20083;-71
2023/02/16 11:41:33;;;;;;;117.03;49.15;;;8.40;99.90;;;;;;5056206;28;20041;-74
2023/02/16 11:44:01;;;;;;;121.53;50.95;;;8.40;99.90;;;;;;5059706;28;20029;-71
2023/02/16 11:46:37;;;;;;;116.30;49.90;;;8.40;99.90;;;;;;5059682;28;20040;-74
2023/02/16 11:49:21;;;;;;;114.60;48.17;;;8.40;99.90;;;;;;5061187;28;20031;-72
2023/02/16 11:51:47;;;;;;;113.18;49.78;;;8.40;99.90;;;;;;5060364;28;20021;-70
2023/02/16 11:54:17;;;;;;;119.03;51.13;;;8.30;99.90;;;;;;5059905;28;20116;-73
2023/02/16 11:56:44;;;;;;;111.45;50.42;;;8.30;99.90;;;;;;5058762;28;20036;-70
2023/02/16 11:59:23;;;;;;;119.38;51.47;;;8.30;99.90;;;;;;5059792;28;20017;-71
2023/02/16 12:02:30;;;;;;;118.13;48.58;;;8.30;99.90;;;;;;5063426;28;20030;-74
2023/02/16 12:05:09;;;;;;;105.85;45.00;;;8.30;99.90;;;;;;5060679;28;20068;-71
2023/02/16 12:07:39;;;;;;;121.65;48.80;;;8.30;99.90;;;;;;5062190;28;20136;-71
2023/02/16 12:10:32;;;;;;;123.60;51.28;;;8.30;99.90;;;;;;5062876;28;20089;-72
2023/02/16 12:13:19;;;;;;;113.97;50.33;;;8.30;99.90;;;;;;5062069;28;20033;-72
2023/02/16 12:16:15;;;;;;;111.78;48.22;;;8.30;99.90;;;;;;5063849;28;20950;-70
2023/02/16 12:19:05;;;;;;;113.22;48.65;;;8.30;99.90;;;;;;5063551;28;20036;-72
2023/02/16 12:21:36;;;;;;;107.90;49.65;;;8.30;99.90;;;;;;5062819;28;20025;-70
2023/02/16 12:24:26;;;;;;;119.43;51.38;;;8.30;99.90;;;;;;5064144;28;20104;-73
2023/02/16 12:26:59;;;;;;;114.97;50.97;;;8.40;99.90;;;;;;5063729;28;20587;-73
2023/02/16 12:29:59;;;;;;;124.28;53.13;;;8.40;99.90;;;;;;5063812;28;20025;-70
2023/02/16 12:33:05;;;;;;;121.85;51.90;;;8.40;99.90;;;;;;5063283;28;20031;-71
2023/02/16 12:35:47;;;;;;;121.38;53.03;;;8.40;99.90;;;;;;5061999;28;20032;-70
2023/02/16 12:38:49;;;;;;;127.85;54.15;;;8.40;99.90;;;;;;5063577;28;20025;-74
2023/02/16 12:41:31;;;;;;;126.07;53.00;;;8.50;99.90;;;;;;5062188;28;20021;-71
2023/02/16 12:44:05;;;;;;;120.38;51.70;;;8.50;99.90;;;;;;5062452;28;20530;-71
2023/02/16 12:46:57;;;;;;;124.43;52.78;;;8.50;99.90;;;;;;5063469;28;20037;-71
2023/02/16 12:49:34;;;;;;;139.80;55.72;;;8.40;99.90;;;;;;5061541;28;20021;-70
2023/02/16 12:52:09;;;;;;;133.55;55.67;;;8.40;99.90;;;;;;5059944;28;20088;-69
2023/02/16 12:54:45;;;;;;;134.27;58.90;;;8.40;99.90;;;;;;5062436;28;20021;-71
2023/02/16 12:57:17;;;;;;;140.70;59.88;;;8.50;99.90;;;;;;5062902;28;20021;-69
2023/02/16 13:00:01;;;;;;;141.25;59.15;;;8.40;99.90;;;;;;5062251;28;20009;-70
2023/02/16 13:02:41;;;;;;;137.82;57.20;;;8.50;99.90;;;;;;5061359;28;20021;-72
2023/02/16 13:05:16;;;;;;;123.35;53.28;;;8.50;99.90;;;;;;5060253;28;20048;-70
2023/02/16 13:07:48;;;;;;;131.32;55.95;;;8.60;99.90;;;;;;5061828;28;20056;-69
2023/02/16 13:10:35;;;;;;;136.23;57.72;;;8.60;99.90;;;;;;5057158;28;20071;-68
2023/02/16 13:13:14;;;;;;;128.82;55.40;;;8.70;99.90;;;;;;5059920;28;20013;-70
2023/02/16 13:15:44;;;;;;;120.20;54.42;;;8.70;99.90;;;;;;5060770;28;20040;-69
2023/02/16 13:18:21;;;;;;;128.30;57.22;;;8.80;99.90;;;;;;5058696;28;20064;-69
2023/02/16 13:21:02;;;;;;;130.70;55.13;;;8.70;99.90;;;;;;5056837;28;20037;-70
2023/02/16 13:23:56;;;;;;;135.82;57.72;;;8.70;99.90;;;;;;5058339;28;20055;-70
2023/02/16 13:26:47;;;;;;;121.40;56.78;;;8.70;99.90;;;;;;5060178;28;20083;-72
2023/02/16 13:29:33;;;;;;;132.40;58.63;;;8.70;99.90;;;;;;5058479;28;20058;-69
2023/02/16 13:32:32;;;;;;;133.45;55.90;;;8.70;99.90;;;;;;5059177;28;20025;-70
2023/02/16 13:35:28;;;;;;;122.53;54.15;;;8.70;99.90;;;;;;5053410;28;20524;-69